createdAt,value
2022-12-12T00:00:34.857Z,9.90
2022-12-12T00:01:33.046Z,8.82
2022-12-12T00:02:29.721Z,8.23
2022-12-12T00:03:26.470Z,10.45
2022-12-12T00:04:23.145Z,9.27
2022-12-12T00:05:19.911Z,8.68
2022-12-12T00:06:16.625Z,8.18
2022-12-12T00:07:13.202Z,8.80
2022-12-12T00:08:09.802Z,10.15
2022-12-12T00:09:06.510Z,11.18
2022-12-12T00:10:04.639Z,8.70
2022-12-12T00:11:01.405Z,8.73
2022-12-12T00:11:58.128Z,8.18
2022-12-12T00:12:54.956Z,8.82
2022-12-12T00:13:53.086Z,8.70
2022-12-12T00:14:49.782Z,10.32
2022-12-12T00:15:46.436Z,8.18
2022-12-12T00:16:43.059Z,8.43
2022-12-12T00:17:39.664Z,8.93
2022-12-12T00:18:37.077Z,9.18
2022-12-12T00:19:33.724Z,8.07
2022-12-12T00:20:30.441Z,8.27
2022-12-12T00:21:29.272Z,8.13
2022-12-12T00:22:25.919Z,9.75
2022-12-12T00:23:24.450Z,8.77
2022-12-12T00:24:21.077Z,8.32
2022-12-12T00:25:17.726Z,7.40
2022-12-12T00:26:23.600Z,9.02
2022-12-12T00:27:20.235Z,9.27
2022-12-12T00:28:16.838Z,8.68
2022-12-12T00:29:13.597Z,9.27
2022-12-12T00:30:10.526Z,9.27
2022-12-12T00:31:07.192Z,8.40
2022-12-12T00:32:04.021Z,10.52
2022-12-12T00:33:00.587Z,7.85
2022-12-12T00:33:57.335Z,9.23
2022-12-12T00:34:53.964Z,10.07
2022-12-12T00:35:52.890Z,6.75
2022-12-12T00:36:51.634Z,8.68
2022-12-12T00:37:48.273Z,7.70
2022-12-12T00:38:44.876Z,8.40
2022-12-12T00:39:41.904Z,8.50
2022-12-12T00:40:38.513Z,8.48
2022-12-12T00:41:37.275Z,8.25
2022-12-12T00:42:33.877Z,8.77
2022-12-12T00:43:30.518Z,6.75
2022-12-12T00:44:27.251Z,7.75
2022-12-12T00:45:23.888Z,8.65
2022-12-12T00:46:24.720Z,10.20
2022-12-12T00:47:21.456Z,9.70
2022-12-12T00:48:18.339Z,8.45
2022-12-12T00:49:14.977Z,8.57
2022-12-12T00:50:11.612Z,7.65
2022-12-12T00:51:10.612Z,8.15
2022-12-12T00:52:07.231Z,9.07
2022-12-12T00:53:03.949Z,7.68
2022-12-12T00:54:00.775Z,7.90
2022-12-12T00:54:57.890Z,9.35
2022-12-12T00:55:56.665Z,7.25
2022-12-12T00:56:53.218Z,9.48
2022-12-12T00:57:49.870Z,11.32
2022-12-12T00:58:46.935Z,8.02
2022-12-12T00:59:43.501Z,8.98
2022-12-12T01:00:42.716Z,8.40
2022-12-12T01:01:39.346Z,9.90
2022-12-12T01:02:36.036Z,9.52
2022-12-12T01:03:35.126Z,8.00
2022-12-12T01:04:31.723Z,10.57
2022-12-12T01:05:28.785Z,8.50
2022-12-12T01:06:26.407Z,9.48
2022-12-12T01:07:23.579Z,11.68
2022-12-12T01:08:20.200Z,10.57
2022-12-12T01:09:16.807Z,7.70
2022-12-12T01:10:13.583Z,8.10
2022-12-12T01:11:11.932Z,7.90
2022-12-12T01:12:08.749Z,9.65
2022-12-12T01:13:05.758Z,9.40
2022-12-12T01:14:02.581Z,11.25
2022-12-12T01:14:59.188Z,12.85
2022-12-12T01:15:56.200Z,12.35
2022-12-12T01:16:52.874Z,11.30
2022-12-12T01:17:49.432Z,11.25
2022-12-12T01:18:46.514Z,10.57
2022-12-12T01:19:43.079Z,9.88
2022-12-12T01:20:41.692Z,8.70
2022-12-12T01:21:38.274Z,6.72
2022-12-12T01:22:37.230Z,8.40
2022-12-12T01:23:33.801Z,7.32
2022-12-12T01:24:30.498Z,9.07
2022-12-12T01:25:27.084Z,7.63
2022-12-12T01:26:24.852Z,9.13
2022-12-12T01:27:21.421Z,8.82
2022-12-12T01:28:17.971Z,9.93
2022-12-12T01:29:14.573Z,7.22
2022-12-12T01:30:13.772Z,9.02
2022-12-12T01:31:11.848Z,9.80
2022-12-12T01:32:08.612Z,9.98
2022-12-12T01:33:05.201Z,10.05
2022-12-12T01:34:01.879Z,8.68
2022-12-12T01:34:58.531Z,8.13
2022-12-12T01:35:55.238Z,8.80
2022-12-12T01:36:52.632Z,8.75
2022-12-12T01:37:49.727Z,9.50
2022-12-12T01:38:48.012Z,8.68
2022-12-12T01:39:44.566Z,7.38
2022-12-12T01:40:41.184Z,7.43
2022-12-12T01:41:37.893Z,9.05
2022-12-12T01:42:34.914Z,8.82
2022-12-12T01:43:31.535Z,8.18
2022-12-12T01:44:47.688Z,9.98
2022-12-12T01:45:59.661Z,9.98
2022-12-12T01:46:56.278Z,10.07
2022-12-12T01:47:52.927Z,11.27
2022-12-12T01:48:54.804Z,8.05
2022-12-12T01:49:54.736Z,8.07
2022-12-12T01:50:51.852Z,7.93
2022-12-12T01:51:52.343Z,9.55
2022-12-12T01:52:49.823Z,8.18
2022-12-12T01:53:48.389Z,7.05
2022-12-12T01:54:49.447Z,10.50
2022-12-12T01:55:48.059Z,7.93
2022-12-12T01:56:47.038Z,9.68
2022-12-12T01:57:47.268Z,8.85
2022-12-12T01:58:47.457Z,8.80
2022-12-12T01:59:46.198Z,8.35
2022-12-12T02:00:43.144Z,9.60
2022-12-12T02:01:40.337Z,10.30
2022-12-12T02:02:39.404Z,7.40
2022-12-12T02:03:37.042Z,8.77
2022-12-12T02:04:34.007Z,7.22
2022-12-12T02:05:37.598Z,7.72
2022-12-12T02:06:34.367Z,9.30
2022-12-12T02:07:31.143Z,8.50
2022-12-12T02:08:28.414Z,8.25
2022-12-12T02:09:26.001Z,7.25
2022-12-12T02:10:22.673Z,7.57
2022-12-12T02:11:19.295Z,8.30
2022-12-12T02:12:15.948Z,8.13
2022-12-12T02:13:17.028Z,8.13
2022-12-12T02:14:34.616Z,6.93
2022-12-12T02:15:45.778Z,9.57
2022-12-12T02:16:51.487Z,8.35
2022-12-12T02:18:09.843Z,7.35
2022-12-12T02:19:33.746Z,9.45
2022-12-12T02:21:25.059Z,7.05
2022-12-12T02:22:41.507Z,7.30
2022-12-12T02:23:53.402Z,6.63
2022-12-12T02:25:11.950Z,6.47
2022-12-12T02:26:15.556Z,6.05
2022-12-12T02:27:27.394Z,6.78
2022-12-12T02:29:00.349Z,7.95
2022-12-12T02:29:59.586Z,6.68
2022-12-12T02:31:14.835Z,6.80
2022-12-12T02:32:25.331Z,6.22
2022-12-12T02:33:34.238Z,6.45
2022-12-12T02:34:45.205Z,5.65
2022-12-12T02:36:05.369Z,6.07
2022-12-12T02:37:12.858Z,7.65
2022-12-12T02:38:25.854Z,6.68
2022-12-12T02:39:54.614Z,6.43
2022-12-12T02:41:00.006Z,7.35
2022-12-12T02:42:10.570Z,6.43
2022-12-12T02:43:13.459Z,7.10
2022-12-12T02:44:38.460Z,6.60
2022-12-12T02:45:51.270Z,6.47
2022-12-12T02:47:06.333Z,6.00
2022-12-12T02:48:33.843Z,5.10
2022-12-12T02:49:41.089Z,5.00
2022-12-12T02:50:40.083Z,5.25
2022-12-12T02:51:38.414Z,5.07
2022-12-12T02:52:36.266Z,5.80
2022-12-12T02:53:33.110Z,5.80
2022-12-12T02:54:29.896Z,4.80
2022-12-12T02:55:26.914Z,5.50
2022-12-12T02:56:41.909Z,4.32
2022-12-12T02:57:41.675Z,4.68
2022-12-12T02:58:38.738Z,5.07
2022-12-12T02:59:41.894Z,5.40
2022-12-12T03:00:56.536Z,5.03
2022-12-12T03:02:22.577Z,5.53
2022-12-12T03:03:53.882Z,5.15
2022-12-12T03:05:32.749Z,4.05
2022-12-12T03:07:15.633Z,3.63
2022-12-12T03:08:42.186Z,4.90
2022-12-12T03:10:04.606Z,5.05
2022-12-12T03:11:11.029Z,5.63
2022-12-12T03:12:17.394Z,4.47
2022-12-12T03:13:35.621Z,4.80
2022-12-12T03:14:44.123Z,3.92
2022-12-12T03:16:12.319Z,4.57
2022-12-12T03:17:18.154Z,4.15
2022-12-12T03:18:26.854Z,4.32
2022-12-12T03:19:28.659Z,4.70
2022-12-12T03:20:43.187Z,6.93
2022-12-12T03:21:59.599Z,5.40
2022-12-12T03:23:02.797Z,4.20
2022-12-12T03:24:05.700Z,3.10
2022-12-12T03:25:24.556Z,3.58
2022-12-12T03:26:32.019Z,4.03
2022-12-12T03:27:48.351Z,4.65
2022-12-12T03:29:08.125Z,5.22
2022-12-12T03:30:11.884Z,6.20
2022-12-12T03:31:12.057Z,4.65
2022-12-12T03:32:16.563Z,5.18
2022-12-12T03:33:32.693Z,5.90
2022-12-12T03:34:38.770Z,4.55
2022-12-12T03:35:41.795Z,5.00
2022-12-12T03:36:49.023Z,5.10
2022-12-12T03:37:58.756Z,4.88
2022-12-12T03:39:06.145Z,5.15
2022-12-12T03:40:14.157Z,5.03
2022-12-12T03:41:22.180Z,5.50
2022-12-12T03:42:18.707Z,5.32
2022-12-12T03:43:20.199Z,4.90
2022-12-12T03:44:29.338Z,4.25
2022-12-12T03:45:35.255Z,4.78
2022-12-12T03:46:39.619Z,5.18
2022-12-12T03:47:43.727Z,5.28
2022-12-12T03:48:49.351Z,5.47
2022-12-12T03:49:58.381Z,4.00
2022-12-12T03:51:00.680Z,4.30
2022-12-12T03:52:11.785Z,3.58
2022-12-12T03:53:22.142Z,4.80
2022-12-12T03:54:25.896Z,5.10
2022-12-12T03:55:45.360Z,4.95
2022-12-12T03:56:51.061Z,5.15
2022-12-12T03:57:56.875Z,4.10
2022-12-12T03:59:01.657Z,4.20
2022-12-12T04:00:05.900Z,5.22
2022-12-12T04:01:07.954Z,4.60
2022-12-12T04:02:16.828Z,5.10
2022-12-12T04:03:25.163Z,5.35
2022-12-12T04:04:29.436Z,6.38
2022-12-12T04:05:30.851Z,5.80
2022-12-12T04:06:39.035Z,5.35
2022-12-12T04:07:43.995Z,5.15
2022-12-12T04:09:00.680Z,4.65
2022-12-12T04:10:15.910Z,5.05
2022-12-12T04:11:39.152Z,4.18
2022-12-12T04:13:03.536Z,4.07
2022-12-12T04:14:32.861Z,4.68
2022-12-12T04:15:53.162Z,4.28
2022-12-12T04:17:00.660Z,6.05
2022-12-12T04:18:33.502Z,6.43
2022-12-12T04:20:18.277Z,4.10
2022-12-12T04:21:58.996Z,5.05
2022-12-12T04:23:16.448Z,6.40
2022-12-12T04:24:20.262Z,5.30
2022-12-12T04:26:04.920Z,5.95
2022-12-12T04:27:07.246Z,4.93
2022-12-12T04:28:07.558Z,5.88
2022-12-12T04:29:19.426Z,6.35
2022-12-12T04:30:16.845Z,5.78
2022-12-12T04:31:14.009Z,6.45
2022-12-12T04:32:42.546Z,6.55
2022-12-12T04:33:48.704Z,6.15
2022-12-12T04:35:00.138Z,5.90
2022-12-12T04:36:00.195Z,8.23
2022-12-12T04:36:56.925Z,7.43
2022-12-12T04:38:00.764Z,8.23
2022-12-12T04:39:00.156Z,9.07
2022-12-12T04:40:00.024Z,8.40
2022-12-12T04:40:59.481Z,9.95
2022-12-12T04:41:57.548Z,8.40
2022-12-12T04:42:59.360Z,8.00
2022-12-12T04:43:56.981Z,9.48
2022-12-12T04:44:59.297Z,9.02
2022-12-12T04:46:09.752Z,12.30
2022-12-12T04:47:09.095Z,9.32
2022-12-12T04:48:09.417Z,8.35
2022-12-12T04:49:15.730Z,8.60
2022-12-12T04:50:14.047Z,9.90
2022-12-12T04:51:13.814Z,9.35
2022-12-12T04:52:13.882Z,10.65
2022-12-12T04:53:18.528Z,11.55
2022-12-12T04:54:49.075Z,8.90
2022-12-12T04:55:54.855Z,9.38
2022-12-12T04:56:58.582Z,8.18
2022-12-12T04:57:55.767Z,7.90
2022-12-12T04:58:52.423Z,9.32
2022-12-12T04:59:49.653Z,11.73
2022-12-12T05:00:51.917Z,11.32
2022-12-12T05:01:57.401Z,8.57
2022-12-12T05:03:19.924Z,9.13
2022-12-12T05:04:25.128Z,10.75
2022-12-12T05:05:28.204Z,10.35
2022-12-12T05:06:32.963Z,10.77
2022-12-12T05:07:37.859Z,9.57
2022-12-12T05:08:42.822Z,9.90
2022-12-12T05:09:39.996Z,6.93
2022-12-12T05:10:43.839Z,6.45
2022-12-12T05:11:42.123Z,5.90
2022-12-12T05:12:50.037Z,6.30
2022-12-12T05:13:46.631Z,7.07
2022-12-12T05:14:43.446Z,8.70
2022-12-12T05:15:44.799Z,7.18
2022-12-12T05:16:47.492Z,6.55
2022-12-12T05:18:45.755Z,8.00
2022-12-12T05:19:42.323Z,6.60
2022-12-12T05:20:39.082Z,7.35
2022-12-12T05:21:35.710Z,6.68
2022-12-12T05:22:32.403Z,7.82
2022-12-12T05:23:34.369Z,8.15
2022-12-12T05:24:32.029Z,7.10
2022-12-12T05:25:28.661Z,8.70
2022-12-12T05:26:28.326Z,7.65
2022-12-12T05:27:24.930Z,8.38
2022-12-12T05:28:21.558Z,9.82
2022-12-12T05:29:18.177Z,9.77
2022-12-12T05:30:14.981Z,8.98
2022-12-12T05:31:11.650Z,8.52
2022-12-12T05:32:08.243Z,10.50
2022-12-12T05:33:04.849Z,8.50
2022-12-12T05:34:01.478Z,7.50
2022-12-12T05:34:58.045Z,9.63
2022-12-12T05:35:54.615Z,7.45
2022-12-12T05:36:51.282Z,7.25
2022-12-12T05:37:51.637Z,6.68
2022-12-12T05:38:48.705Z,6.20
2022-12-12T05:39:45.298Z,4.97
2022-12-12T05:40:41.932Z,5.18
2022-12-12T05:41:38.493Z,5.80
2022-12-12T05:42:35.255Z,5.13
2022-12-12T05:43:32.187Z,5.03
2022-12-12T05:44:28.804Z,5.85
2022-12-12T05:45:25.498Z,5.75
2022-12-12T05:46:22.133Z,4.90
2022-12-12T05:47:21.353Z,5.78
2022-12-12T05:48:23.963Z,5.25
2022-12-12T05:49:21.064Z,4.75
2022-12-12T05:50:17.810Z,4.70
2022-12-12T05:51:14.403Z,5.90
2022-12-12T05:52:11.088Z,5.53
2022-12-12T05:53:07.741Z,5.00
2022-12-12T05:54:04.468Z,5.65
2022-12-12T05:55:01.098Z,5.93
2022-12-12T05:55:57.820Z,5.90
2022-12-12T05:56:54.510Z,6.18
2022-12-12T05:57:51.059Z,7.32
2022-12-12T05:58:47.659Z,5.43
2022-12-12T05:59:44.631Z,6.68
2022-12-12T06:00:41.248Z,6.47
2022-12-12T06:01:37.851Z,9.02
2022-12-12T06:02:34.606Z,6.07
2022-12-12T06:03:32.481Z,5.60
2022-12-12T06:04:29.197Z,4.97
2022-12-12T06:05:25.936Z,6.70
2022-12-12T06:06:22.832Z,7.43
2022-12-12T06:07:19.476Z,8.13
2022-12-12T06:08:18.803Z,6.53
2022-12-12T06:09:17.974Z,14.05
2022-12-12T06:10:14.763Z,11.82
2022-12-12T06:11:12.691Z,12.18
2022-12-12T06:12:09.413Z,10.82
2022-12-12T06:13:05.980Z,11.00
2022-12-12T06:14:02.571Z,12.88
2022-12-12T06:14:59.154Z,10.88
2022-12-12T06:15:55.761Z,10.93
2022-12-12T06:16:52.874Z,10.38
2022-12-12T06:17:51.488Z,12.23
2022-12-12T06:18:55.597Z,12.15
2022-12-12T06:19:52.886Z,12.68
2022-12-12T06:20:49.491Z,11.75
2022-12-12T06:21:46.108Z,9.82
2022-12-12T06:22:42.700Z,11.73
2022-12-12T06:23:41.002Z,12.27
2022-12-12T06:24:37.630Z,10.65
2022-12-12T06:25:34.355Z,11.73
2022-12-12T06:26:31.075Z,11.68
2022-12-12T06:27:28.016Z,12.43
2022-12-12T06:28:24.628Z,11.45
2022-12-12T06:29:21.193Z,12.68
2022-12-12T06:30:17.861Z,12.77
2022-12-12T06:31:15.778Z,12.40
2022-12-12T06:32:12.398Z,13.00
2022-12-12T06:33:08.970Z,15.77
2022-12-12T06:34:05.538Z,15.35
2022-12-12T06:35:02.162Z,16.15
2022-12-12T06:36:26.836Z,13.45
2022-12-12T06:37:23.589Z,13.18
2022-12-12T06:38:20.644Z,12.23
2022-12-12T06:39:18.049Z,12.30
2022-12-12T06:40:15.678Z,10.95
2022-12-12T06:41:15.006Z,9.63
2022-12-12T06:42:11.571Z,10.57
2022-12-12T06:43:08.110Z,13.00
2022-12-12T06:44:04.929Z,9.98
2022-12-12T06:45:01.579Z,10.93
2022-12-12T06:46:03.647Z,10.70
2022-12-12T06:47:00.566Z,12.32
2022-12-12T06:47:57.167Z,10.95
2022-12-12T06:48:55.257Z,10.88
2022-12-12T06:49:51.901Z,10.18
2022-12-12T06:50:48.527Z,11.90
2022-12-12T06:51:45.286Z,11.93
2022-12-12T06:52:41.910Z,11.32
2022-12-12T06:53:38.598Z,12.82
2022-12-12T07:50:36.274Z,17.20
2022-12-12T07:51:32.910Z,16.23
2022-12-12T07:52:29.579Z,17.52
2022-12-12T07:53:26.194Z,16.60
2022-12-12T07:54:22.744Z,17.00
2022-12-12T07:55:19.344Z,17.50
2022-12-12T07:56:17.726Z,17.55
2022-12-12T07:57:14.343Z,17.75
2022-12-12T07:58:11.015Z,18.35
2022-12-12T07:59:07.857Z,17.60
2022-12-12T08:00:15.833Z,17.27
2022-12-12T08:01:18.633Z,16.38
2022-12-12T08:02:15.318Z,18.00
2022-12-12T08:03:12.007Z,16.48
2022-12-12T08:04:08.662Z,16.08
2022-12-12T08:07:16.122Z,15.88
2022-12-12T08:08:12.782Z,15.95
2022-12-12T08:09:09.409Z,17.20
2022-12-12T08:10:06.215Z,15.30
2022-12-12T08:11:11.427Z,15.48
2022-12-12T08:12:08.219Z,16.42
2022-12-12T08:13:05.022Z,15.60
2022-12-12T08:14:01.647Z,17.35
2022-12-12T08:14:58.377Z,16.33
2022-12-12T08:15:55.162Z,17.92
2022-12-12T08:16:52.617Z,22.45
2022-12-12T08:17:49.281Z,20.83
2022-12-12T08:18:46.164Z,21.90
2022-12-12T08:19:42.815Z,24.17
2022-12-12T08:20:41.892Z,27.63
2022-12-12T08:21:38.431Z,24.60
2022-12-12T08:22:35.150Z,25.25
2022-12-12T08:23:31.739Z,22.77
2022-12-12T08:24:31.238Z,24.35
2022-12-12T08:25:27.923Z,26.15
2022-12-12T08:26:26.150Z,25.05
2022-12-12T08:27:22.750Z,28.52
2022-12-12T08:28:19.368Z,24.23
2022-12-12T08:29:16.051Z,20.73
2022-12-12T08:30:12.927Z,20.42
2022-12-12T08:31:09.646Z,21.88
2022-12-12T08:32:06.332Z,20.35
2022-12-12T08:33:07.957Z,23.95
2022-12-12T08:34:05.646Z,14.57
2022-12-12T08:35:02.379Z,22.23
2022-12-12T08:35:58.958Z,19.73
2022-12-12T08:36:55.536Z,24.13
2022-12-12T08:37:52.202Z,19.38
2022-12-12T08:38:49.792Z,19.70
2022-12-12T08:39:48.405Z,19.00
2022-12-12T08:40:48.131Z,20.25
2022-12-12T08:41:50.190Z,19.77
2022-12-12T08:42:46.785Z,18.85
2022-12-12T08:43:44.200Z,18.42
2022-12-12T08:44:41.110Z,18.33
2022-12-12T08:45:38.894Z,17.98
2022-12-12T08:46:38.374Z,19.13
2022-12-12T08:47:35.083Z,17.75
2022-12-12T08:48:31.832Z,17.60
2022-12-12T08:49:28.375Z,17.30
2022-12-12T08:50:24.992Z,18.33
2022-12-12T08:51:22.046Z,15.63
2022-12-12T08:52:18.818Z,18.95
2022-12-12T08:53:15.442Z,17.35
2022-12-12T08:54:12.990Z,17.65
2022-12-12T08:55:09.657Z,17.77
2022-12-12T08:56:06.769Z,19.60
2022-12-12T08:57:03.471Z,19.58
2022-12-12T08:58:00.102Z,16.42
2022-12-12T08:58:56.679Z,18.73
2022-12-12T08:59:53.202Z,21.58
2022-12-12T09:00:49.976Z,18.35
2022-12-12T09:01:46.652Z,19.23
2022-12-12T09:02:44.223Z,18.30
2022-12-12T09:03:40.920Z,20.58
2022-12-12T09:04:38.095Z,20.55
2022-12-12T09:05:35.637Z,20.65
2022-12-12T09:06:32.301Z,19.30
2022-12-12T09:07:28.937Z,19.45
2022-12-12T09:08:25.657Z,22.10
2022-12-12T09:09:22.344Z,21.38
2022-12-12T09:10:18.934Z,18.83
2022-12-12T09:11:16.271Z,19.20
2022-12-12T09:12:12.925Z,19.75
2022-12-12T09:13:11.405Z,20.25
2022-12-12T09:14:07.988Z,19.33
2022-12-12T09:15:05.090Z,17.33
2022-12-12T09:16:01.956Z,19.58
2022-12-12T09:16:58.576Z,19.10
2022-12-12T09:17:55.268Z,19.23
2022-12-12T09:18:52.141Z,18.65
2022-12-12T09:19:48.710Z,17.98
2022-12-12T09:20:56.091Z,20.33
2022-12-12T09:21:52.673Z,19.55
2022-12-12T09:22:49.343Z,20.00
2022-12-12T09:23:46.254Z,19.95
2022-12-12T09:24:42.968Z,19.42
2022-12-12T09:25:42.600Z,20.73
2022-12-12T09:26:39.384Z,26.65
2022-12-12T09:27:36.439Z,24.27
2022-12-12T09:28:33.314Z,26.60
2022-12-12T09:29:30.077Z,28.27
2022-12-12T09:30:26.726Z,29.13
2022-12-12T09:31:23.501Z,25.67
2022-12-12T09:32:24.577Z,27.20
2022-12-12T09:33:21.598Z,28.95
2022-12-12T09:34:18.208Z,26.48
2022-12-12T09:35:15.231Z,27.70
2022-12-12T09:36:13.824Z,27.63
2022-12-12T09:37:10.558Z,26.60
2022-12-12T09:38:14.006Z,29.75
2022-12-12T09:39:11.343Z,29.70
2022-12-12T09:40:09.426Z,26.33
2022-12-12T09:41:09.053Z,28.25
2022-12-12T09:42:11.323Z,28.33
2022-12-12T09:43:15.829Z,30.83
2022-12-12T09:44:18.682Z,32.22
2022-12-12T09:45:16.001Z,29.00
2022-12-12T09:47:00.507Z,30.67
2022-12-12T09:48:00.813Z,31.88
2022-12-12T09:49:07.500Z,35.63
2022-12-12T09:50:14.655Z,32.33
2022-12-12T09:51:13.052Z,36.17
2022-12-12T09:52:15.744Z,37.70
2022-12-12T09:53:16.330Z,37.63
2022-12-12T09:54:16.690Z,38.63
2022-12-12T09:55:20.460Z,41.27
2022-12-12T09:56:35.191Z,33.88
2022-12-12T09:57:44.623Z,37.00
2022-12-12T09:58:53.866Z,35.65
2022-12-12T10:00:05.594Z,38.05
2022-12-12T10:01:08.006Z,36.65
2022-12-12T10:03:37.830Z,35.53
2022-12-12T10:04:53.830Z,32.90
2022-12-12T10:06:28.589Z,33.15
2022-12-12T10:07:43.546Z,35.28
2022-12-12T10:08:42.943Z,33.40
2022-12-12T10:10:01.033Z,31.63
2022-12-12T10:11:27.346Z,31.38
2022-12-12T10:12:25.894Z,35.00
2022-12-12T10:13:26.849Z,35.72
2022-12-12T10:14:38.788Z,33.80
2022-12-12T10:15:39.340Z,36.00
2022-12-12T10:16:38.606Z,33.47
2022-12-12T10:17:43.331Z,36.60
2022-12-12T10:18:43.458Z,38.38
2022-12-12T10:19:49.850Z,35.22
2022-12-12T10:20:52.177Z,34.85
2022-12-12T10:21:51.764Z,33.10
2022-12-12T10:23:17.421Z,35.95
2022-12-12T10:24:33.737Z,33.05
2022-12-12T10:25:49.020Z,32.58
2022-12-12T10:26:45.636Z,33.92
2022-12-12T10:27:42.257Z,30.58
2022-12-12T10:28:39.142Z,35.80
2022-12-12T10:29:41.200Z,32.15
2022-12-12T10:31:08.045Z,31.52
2022-12-12T10:32:27.682Z,32.67
2022-12-12T10:33:51.335Z,38.47
2022-12-12T10:36:34.379Z,34.72
2022-12-12T10:37:54.220Z,33.33
2022-12-12T10:39:21.551Z,31.42
2022-12-12T10:40:37.665Z,34.00
2022-12-12T10:41:48.872Z,35.05
2022-12-12T10:43:02.505Z,36.90
2022-12-12T10:44:20.001Z,34.10
2022-12-12T10:45:40.820Z,36.53
2022-12-12T10:46:50.029Z,37.72
2022-12-12T10:47:47.022Z,32.55
2022-12-12T10:48:45.707Z,30.55
2022-12-12T10:49:42.576Z,33.72
2022-12-12T10:50:44.616Z,33.22
2022-12-12T10:51:43.550Z,28.17
2022-12-12T10:52:40.403Z,34.67
2022-12-12T10:53:37.203Z,31.20
2022-12-12T10:54:44.230Z,30.05
2022-12-12T10:56:00.578Z,32.33
2022-12-12T10:57:18.011Z,33.17
2022-12-12T10:58:19.506Z,26.70
2022-12-12T10:59:22.209Z,25.63
2022-12-12T11:00:29.434Z,30.17
2022-12-12T11:02:08.561Z,27.10
2022-12-12T11:02:56.850Z,28.13
2022-12-12T11:03:59.112Z,31.77
2022-12-12T11:05:07.152Z,30.38
2022-12-12T11:06:08.014Z,34.72
2022-12-12T11:07:04.842Z,29.10
2022-12-12T11:08:07.476Z,35.28
2022-12-12T11:09:15.707Z,28.20
2022-12-12T11:10:26.865Z,31.15
2022-12-12T11:11:28.586Z,31.20
2022-12-12T11:12:35.103Z,23.70
2022-12-12T11:13:39.459Z,34.88
2022-12-12T11:14:37.694Z,31.70
2022-12-12T11:15:46.236Z,32.65
2022-12-12T11:16:44.720Z,29.88
2022-12-12T11:17:41.761Z,29.30
2022-12-12T11:18:38.370Z,30.85
2022-12-12T11:19:39.215Z,28.08
2022-12-12T11:20:44.361Z,31.80
2022-12-12T11:21:41.346Z,24.38
2022-12-12T11:22:39.712Z,28.58
2022-12-12T11:23:40.759Z,26.23
2022-12-12T11:24:43.315Z,28.63
2022-12-12T11:25:39.897Z,25.67
2022-12-12T11:26:49.246Z,26.80
2022-12-12T11:27:46.326Z,27.48
2022-12-12T11:28:45.625Z,26.48
2022-12-12T11:29:47.964Z,28.50
2022-12-12T11:30:44.857Z,25.45
2022-12-12T11:31:43.914Z,21.88
2022-12-12T11:32:47.486Z,26.60
2022-12-12T11:33:52.778Z,26.98
2022-12-12T11:34:58.257Z,28.67
2022-12-12T11:35:56.191Z,28.15
2022-12-12T11:36:53.699Z,28.85
2022-12-12T11:37:56.102Z,27.05
2022-12-12T11:39:54.256Z,30.88
2022-12-12T11:41:03.795Z,26.92
2022-12-12T11:42:16.452Z,28.42
2022-12-12T11:43:29.443Z,24.70
2022-12-12T11:44:30.097Z,31.38
2022-12-12T11:45:26.790Z,24.10
2022-12-12T11:46:33.733Z,27.67
2022-12-12T11:47:38.757Z,33.22
2022-12-12T11:48:41.144Z,27.67
2022-12-12T11:50:46.471Z,27.60
2022-12-12T11:51:44.463Z,26.52
2022-12-12T11:52:41.067Z,28.73
2022-12-12T11:53:45.128Z,28.73
2022-12-12T11:54:41.732Z,28.85
2022-12-12T11:56:04.822Z,27.80
2022-12-12T11:57:06.691Z,29.52
2022-12-12T11:58:26.581Z,30.77
2022-12-12T11:59:35.115Z,27.00
2022-12-12T12:00:42.431Z,30.23
2022-12-12T12:02:11.283Z,27.40
2022-12-12T12:03:35.624Z,30.33
2022-12-12T12:05:11.843Z,28.55
2022-12-12T12:06:34.586Z,33.88
2022-12-12T12:08:03.339Z,27.13
2022-12-12T12:09:22.425Z,32.83
2022-12-12T12:10:36.254Z,28.17
2022-12-12T12:11:59.115Z,29.60
2022-12-12T12:13:13.879Z,26.67
2022-12-12T12:14:42.777Z,32.13
2022-12-12T12:16:07.616Z,29.15
2022-12-12T12:17:07.052Z,26.50
2022-12-12T12:18:19.805Z,30.25
2022-12-12T12:19:26.039Z,29.77
2022-12-12T12:20:49.806Z,28.92
2022-12-12T12:22:23.686Z,30.10
2022-12-12T12:23:42.470Z,29.75
2022-12-12T12:24:40.786Z,28.15
2022-12-12T12:25:51.861Z,29.73
2022-12-12T12:27:25.273Z,30.63
2022-12-12T12:28:34.524Z,30.47
2022-12-12T12:29:52.046Z,30.67
2022-12-12T12:31:06.371Z,29.80
2022-12-12T12:32:12.666Z,31.38
2022-12-12T12:33:30.939Z,30.65
2022-12-12T12:34:33.719Z,31.90
2022-12-12T12:35:50.316Z,31.50
2022-12-12T12:37:14.120Z,29.00
2022-12-12T12:38:16.893Z,31.50
2022-12-12T12:39:34.922Z,28.85
2022-12-12T12:40:48.648Z,32.40
2022-12-12T12:41:45.273Z,33.05
2022-12-12T12:43:14.010Z,33.47
2022-12-12T12:44:30.521Z,29.67
2022-12-12T12:45:45.752Z,29.73
2022-12-12T12:47:00.985Z,28.33
2022-12-12T12:48:19.466Z,23.17
2022-12-12T12:49:23.649Z,33.67
2022-12-12T12:50:28.305Z,26.85
2022-12-12T12:51:31.762Z,28.35
2022-12-12T12:52:36.604Z,29.15
2022-12-12T12:53:42.743Z,28.50
2022-12-12T12:54:41.245Z,28.80
2022-12-12T12:55:47.747Z,28.88
2022-12-12T12:56:50.626Z,37.13
2022-12-12T12:57:50.346Z,27.27
2022-12-12T12:58:49.590Z,30.10
2022-12-12T12:59:53.719Z,29.90
2022-12-12T13:00:59.977Z,28.45
2022-12-12T13:02:01.617Z,32.20
2022-12-12T13:03:07.491Z,31.10
2022-12-12T13:04:22.678Z,32.35
2022-12-12T13:05:22.603Z,29.83
2022-12-12T13:06:25.754Z,31.13
2022-12-12T13:07:28.938Z,32.88
2022-12-12T13:08:39.973Z,30.63
2022-12-12T13:09:59.768Z,30.05
2022-12-12T13:11:07.813Z,31.15
2022-12-12T13:12:33.420Z,33.63
2022-12-12T13:13:32.815Z,29.40
2022-12-12T13:14:49.465Z,33.78
2022-12-12T13:15:51.679Z,31.48
2022-12-12T13:16:50.985Z,24.48
2022-12-12T13:18:01.617Z,30.38
2022-12-12T13:19:24.188Z,27.00
2022-12-12T13:20:25.868Z,36.58
2022-12-12T13:21:35.547Z,34.58
2022-12-12T13:22:53.696Z,30.23
2022-12-12T13:24:03.181Z,26.35
2022-12-12T13:25:19.012Z,30.83
2022-12-12T13:26:21.590Z,31.55
2022-12-12T13:27:26.387Z,29.27
2022-12-12T13:28:42.494Z,33.97
2022-12-12T13:29:47.584Z,35.85
2022-12-12T13:30:53.157Z,33.13
2022-12-12T13:32:02.995Z,32.03
2022-12-12T13:33:14.322Z,35.17
2022-12-12T13:34:16.967Z,28.50
2022-12-12T13:35:18.127Z,32.30
2022-12-12T13:36:30.282Z,33.15
2022-12-12T13:37:29.105Z,27.33
2022-12-12T13:38:30.223Z,29.67
2022-12-12T13:39:30.515Z,29.50
2022-12-12T13:40:32.439Z,31.75
2022-12-12T13:42:03.016Z,27.60
2022-12-12T13:43:10.211Z,30.48
2022-12-12T13:44:33.165Z,29.65
2022-12-12T13:45:32.543Z,26.10
2022-12-12T13:46:37.972Z,28.55
2022-12-12T13:47:34.626Z,25.65
2022-12-12T13:48:46.447Z,28.42
2022-12-12T13:50:22.628Z,31.52
2022-12-12T13:51:28.071Z,27.20
2022-12-12T13:52:28.897Z,30.17
2022-12-12T13:53:25.490Z,26.52
2022-12-12T13:54:22.388Z,27.15
2022-12-12T13:55:22.682Z,28.98
2022-12-12T13:56:32.264Z,29.17
2022-12-12T13:57:31.527Z,28.67
2022-12-12T13:58:35.006Z,27.55
2022-12-12T13:59:31.928Z,25.88
2022-12-12T14:00:32.400Z,28.80
2022-12-12T14:01:29.006Z,35.33
2022-12-12T14:02:30.972Z,26.92
2022-12-12T14:03:30.887Z,33.45
2022-12-12T14:04:36.537Z,37.10
2022-12-12T14:05:48.813Z,32.45
2022-12-12T14:06:45.524Z,29.43
2022-12-12T14:08:01.659Z,26.35
2022-12-12T14:08:58.950Z,39.55
2022-12-12T14:09:57.518Z,31.52
2022-12-12T14:11:08.291Z,34.33
2022-12-12T14:12:31.368Z,32.35
2022-12-12T14:13:36.403Z,33.50
2022-12-12T14:14:36.586Z,29.08
2022-12-12T14:15:33.694Z,35.25
2022-12-12T14:16:30.850Z,35.08
2022-12-12T14:17:30.401Z,33.88
2022-12-12T14:18:30.570Z,33.83
2022-12-12T14:19:35.662Z,34.55
2022-12-12T14:20:43.784Z,34.35
2022-12-12T14:21:45.309Z,37.17
2022-12-12T14:22:44.891Z,39.43
2022-12-12T14:23:50.298Z,36.25
2022-12-12T14:25:19.118Z,42.45
2022-12-12T14:26:27.810Z,33.50
2022-12-12T14:27:45.934Z,32.45
2022-12-12T14:28:42.553Z,33.45
2022-12-12T14:29:41.962Z,38.70
2022-12-12T14:30:58.804Z,34.67
2022-12-12T14:32:04.658Z,33.15
2022-12-12T14:33:26.604Z,35.13
2022-12-12T14:34:38.327Z,36.97
2022-12-12T14:35:44.476Z,32.60
2022-12-12T14:36:49.667Z,35.40
2022-12-12T14:38:11.856Z,33.97
2022-12-12T14:39:33.348Z,29.17
2022-12-12T14:40:33.509Z,36.97
2022-12-12T14:41:35.997Z,35.75
2022-12-12T14:44:38.182Z,38.90
2022-12-12T14:45:49.840Z,35.53
2022-12-12T14:46:47.070Z,35.03
2022-12-12T14:47:43.720Z,36.47
2022-12-12T14:48:40.348Z,34.45
2022-12-12T14:49:37.363Z,36.88
2022-12-12T14:50:34.363Z,32.13
2022-12-12T14:51:35.022Z,34.28
2022-12-12T14:52:31.710Z,34.70
2022-12-12T14:53:39.277Z,34.90
2022-12-12T14:54:36.778Z,36.88
2022-12-12T14:55:33.531Z,37.05